Time;durP1;ratioP1;P1;durP2;ratioP2;P2;SDS_P1;SDS_P2;PMS_P1;PMS_P2;Temp;Humidity;BMP_temperature;BMP_pressure;BME280_temperature;BME280_humidity;BME280_pressure;Samples;Min_cycle;Max_cycle;Signal;HPM_P1;HPM_P2
2022/03/22 00:02:10;;;;;;;18.43;13.23;;;5.80;99.90;;;;;;5052511;28;20205;-51
2022/03/22 00:04:39;;;;;;;18.17;12.80;;;5.80;99.90;;;;;;5053426;28;20289;-51
2022/03/22 00:07:08;;;;;;;16.33;13.07;;;5.80;99.90;;;;;;5053423;28;20226;-50
2022/03/22 00:09:36;;;;;;;18.47;12.93;;;5.80;99.90;;;;;;5052836;28;20224;-51
2022/03/22 00:12:05;;;;;;;16.70;13.10;;;5.80;99.90;;;;;;5052748;28;20206;-51
2022/03/22 00:14:33;;;;;;;17.93;12.40;;;5.80;99.90;;;;;;5052053;28;20211;-51
2022/03/22 00:17:23;;;;;;;18.17;12.17;;;5.70;99.90;;;;;;5053026;28;20325;-51
2022/03/22 00:19:59;;;;;;;20.13;12.90;;;5.70;99.90;;;;;;5053178;28;20727;-51
2022/03/22 00:22:27;;;;;;;16.60;12.47;;;5.70;99.90;;;;;;5052940;28;20220;-51
2022/03/22 00:24:55;;;;;;;17.63;12.87;;;5.60;99.90;;;;;;5052526;28;20243;-51
2022/03/22 00:27:24;;;;;;;21.67;13.27;;;5.60;99.90;;;;;;5052738;28;20726;-51
2022/03/22 00:29:52;;;;;;;17.23;12.03;;;5.60;99.90;;;;;;5052900;28;20263;-51
2022/03/22 00:32:20;;;;;;;16.27;12.30;;;5.60;99.90;;;;;;5052126;28;20212;-51
2022/03/22 00:34:49;;;;;;;17.00;13.23;;;5.60;99.90;;;;;;5052596;28;20213;-51
2022/03/22 00:37:17;;;;;;;16.40;12.60;;;5.50;99.90;;;;;;5053111;28;20237;-51
2022/03/22 00:39:46;;;;;;;21.97;13.47;;;5.50;99.90;;;;;;5052574;28;20296;-51
2022/03/22 00:42:15;;;;;;;16.17;12.27;;;5.40;99.90;;;;;;5052320;28;20581;-50
2022/03/22 00:44:43;;;;;;;15.97;12.60;;;5.40;99.90;;;;;;5052842;28;20259;-51
2022/03/22 00:47:11;;;;;;;18.43;13.20;;;5.30;99.90;;;;;;5052718;28;20233;-50
2022/03/22 00:49:39;;;;;;;22.17;13.30;;;5.30;99.90;;;;;;5052576;28;20206;-50
2022/03/22 00:52:09;;;;;;;18.27;12.97;;;5.30;99.90;;;;;;5051696;28;20256;-50
2022/03/22 00:54:37;;;;;;;19.47;13.23;;;5.30;99.90;;;;;;5052416;28;20263;-51
2022/03/22 00:57:05;;;;;;;18.73;13.50;;;5.20;99.90;;;;;;5052159;28;20225;-50
2022/03/22 01:02:19;;;;;;;20.33;13.87;;;5.20;99.90;;;;;;5051591;28;20717;-51
2022/03/22 01:04:47;;;;;;;18.07;13.60;;;5.10;99.90;;;;;;5052093;28;20743;-51
2022/03/22 01:07:17;;;;;;;16.00;12.67;;;5.10;99.90;;;;;;5052390;28;20283;-50
2022/03/22 01:09:45;;;;;;;18.20;13.57;;;5.10;99.90;;;;;;5052052;28;20206;-51
2022/03/22 01:12:13;;;;;;;18.10;13.57;;;5.10;99.90;;;;;;5051564;28;20741;-51
2022/03/22 01:14:42;;;;;;;17.83;13.70;;;5.00;99.90;;;;;;5051889;28;20209;-51
2022/03/22 01:17:10;;;;;;;16.53;13.23;;;5.00;99.90;;;;;;5051808;28;20870;-51
2022/03/22 01:19:39;;;;;;;21.50;14.47;;;4.90;99.90;;;;;;5051800;28;20598;-50
2022/03/22 01:22:07;;;;;;;24.43;14.00;;;4.90;99.90;;;;;;5051832;28;20347;-51
2022/03/22 01:24:36;;;;;;;19.23;13.90;;;4.90;99.90;;;;;;5051779;28;20266;-51
2022/03/22 01:27:05;;;;;;;19.33;13.50;;;4.80;99.90;;;;;;5051624;28;20260;-50
2022/03/22 01:29:33;;;;;;;16.23;13.07;;;4.80;99.90;;;;;;5051722;28;20236;-50
2022/03/22 01:32:01;;;;;;;19.63;14.10;;;4.80;99.90;;;;;;5051193;28;20276;-50
2022/03/22 01:34:29;;;;;;;17.53;13.07;;;4.70;99.90;;;;;;5051952;28;20275;-50
2022/03/22 01:36:57;;;;;;;19.93;14.10;;;4.70;99.90;;;;;;5051664;28;20648;-50
2022/03/22 01:39:25;;;;;;;17.10;13.83;;;4.70;99.90;;;;;;5051896;28;20228;-51
2022/03/22 01:41:55;;;;;;;20.20;13.77;;;4.70;99.90;;;;;;5050713;28;20705;-51
2022/03/22 01:44:23;;;;;;;21.50;13.87;;;4.60;99.90;;;;;;5051505;28;20215;-50
2022/03/22 01:46:52;;;;;;;19.50;14.30;;;4.60;99.90;;;;;;5051477;28;20600;-51
2022/03/22 01:49:22;;;;;;;22.03;14.13;;;4.70;99.90;;;;;;5050496;28;20200;-51
2022/03/22 01:51:52;;;;;;;20.00;14.33;;;4.60;99.90;;;;;;5051150;28;20255;-51
2022/03/22 01:54:20;;;;;;;18.57;13.57;;;4.60;99.90;;;;;;5051319;28;20208;-51
2022/03/22 01:56:49;;;;;;;18.63;13.57;;;4.60;99.90;;;;;;5051124;28;20262;-51
2022/03/22 01:59:18;;;;;;;17.57;13.50;;;4.60;99.90;;;;;;5051328;28;20226;-50
2022/03/22 02:07:22;;;;;;;20.37;14.33;;;4.60;99.90;;;;;;5051082;28;20273;-50
2022/03/22 02:09:50;;;;;;;22.03;14.53;;;4.60;99.90;;;;;;5051100;28;20261;-50
2022/03/22 02:12:18;;;;;;;19.23;15.00;;;4.60;99.90;;;;;;5049494;28;20216;-51
2022/03/22 02:14:47;;;;;;;24.63;14.17;;;4.60;99.90;;;;;;5051109;28;20260;-51
2022/03/22 02:17:15;;;;;;;19.13;13.50;;;4.60;99.90;;;;;;5050998;28;20288;-51
2022/03/22 02:19:43;;;;;;;22.40;14.07;;;4.50;99.90;;;;;;5050982;28;20253;-51
2022/03/22 02:22:16;;;;;;;20.67;14.13;;;4.50;99.90;;;;;;5050697;28;20260;-51
2022/03/22 02:24:46;;;;;;;20.37;14.57;;;4.50;99.90;;;;;;5051144;28;20275;-50
2022/03/22 02:27:15;;;;;;;22.97;15.43;;;4.50;99.90;;;;;;5051273;28;20274;-51
2022/03/22 02:29:43;;;;;;;21.23;14.37;;;4.50;99.90;;;;;;5051148;28;20209;-50
2022/03/22 02:32:12;;;;;;;23.37;15.13;;;4.40;99.90;;;;;;5050506;28;20214;-51
2022/03/22 02:34:40;;;;;;;18.20;13.93;;;4.40;99.90;;;;;;5042282;28;20275;-50
2022/03/22 02:37:08;;;;;;;20.27;14.07;;;4.40;99.90;;;;;;5031019;28;20290;-50
2022/03/22 02:39:36;;;;;;;19.63;14.23;;;4.30;99.90;;;;;;5030971;28;20228;-50
2022/03/22 02:42:07;;;;;;;18.73;14.17;;;4.30;99.90;;;;;;5030232;28;20269;-51
2022/03/22 02:44:35;;;;;;;21.00;13.90;;;4.30;99.90;;;;;;5030368;28;20191;-50
2022/03/22 02:47:03;;;;;;;22.10;13.90;;;4.30;99.90;;;;;;5030822;28;20232;-50
2022/03/22 02:49:31;;;;;;;21.20;13.93;;;4.20;99.90;;;;;;5030600;28;20234;-51
2022/03/22 02:51:59;;;;;;;18.93;13.93;;;4.20;99.90;;;;;;5030200;28;20276;-51
2022/03/22 02:54:27;;;;;;;18.57;13.77;;;4.20;99.90;;;;;;5030825;28;20584;-50
2022/03/22 02:56:55;;;;;;;18.37;13.83;;;4.20;99.90;;;;;;5030387;28;20235;-50
2022/03/22 02:59:25;;;;;;;19.40;14.47;;;4.20;99.90;;;;;;5036739;28;20221;-50
2022/03/22 03:01:54;;;;;;;19.80;13.70;;;4.20;99.90;;;;;;5050093;28;20206;-51
2022/03/22 03:04:23;;;;;;;16.67;12.73;;;4.20;99.90;;;;;;5044485;28;20202;-51
2022/03/22 03:06:51;;;;;;;19.93;13.90;;;4.10;99.90;;;;;;5035208;28;20244;-50
2022/03/22 03:09:19;;;;;;;21.93;13.47;;;4.10;99.90;;;;;;5050131;28;20633;-52
2022/03/22 03:11:47;;;;;;;23.20;14.37;;;4.10;99.90;;;;;;5050130;28;20261;-51
2022/03/22 03:17:02;;;;;;;19.53;13.63;;;4.10;99.90;;;;;;5053589;28;20226;-51
2022/03/22 03:19:30;;;;;;;17.50;12.80;;;4.10;99.90;;;;;;5053669;28;20229;-50
2022/03/22 03:21:58;;;;;;;19.17;13.13;;;4.10;99.90;;;;;;5053488;28;20207;-51
2022/03/22 03:24:27;;;;;;;16.43;13.27;;;4.10;99.90;;;;;;5053710;28;20958;-51
2022/03/22 03:26:55;;;;;;;19.33;13.20;;;4.10;99.90;;;;;;5054123;28;20223;-50
2022/03/22 03:29:23;;;;;;;18.73;12.80;;;4.00;99.90;;;;;;5054237;28;20209;-51
2022/03/22 03:31:51;;;;;;;17.60;13.23;;;3.90;99.90;;;;;;5053239;28;20213;-51
2022/03/22 03:34:21;;;;;;;19.83;13.43;;;4.00;99.90;;;;;;5054218;28;20575;-50
2022/03/22 03:36:49;;;;;;;17.07;13.17;;;4.00;99.90;;;;;;5054448;28;20263;-51
2022/03/22 03:39:17;;;;;;;17.13;13.20;;;4.00;99.90;;;;;;5054470;28;20210;-51
2022/03/22 03:41:54;;;;;;;18.30;12.53;;;3.90;99.90;;;;;;5053379;28;20265;-51
2022/03/22 03:47:11;;;;;;;20.20;13.90;;;3.70;99.90;;;;;;5053793;28;20257;-54
2022/03/22 03:49:42;;;;;;;18.20;13.10;;;3.70;99.90;;;;;;5054010;28;20205;-51
2022/03/22 03:52:13;;;;;;;18.53;12.73;;;3.60;99.90;;;;;;5053177;28;20206;-51
2022/03/22 03:54:42;;;;;;;23.00;13.77;;;3.60;99.90;;;;;;5053949;28;20259;-51
2022/03/22 03:57:10;;;;;;;20.23;13.83;;;3.60;99.90;;;;;;5053597;28;20584;-51
2022/03/22 03:59:39;;;;;;;18.40;13.43;;;3.50;99.90;;;;;;5053346;28;20223;-51
2022/03/22 04:02:08;;;;;;;21.87;13.87;;;3.50;99.90;;;;;;5051049;28;20258;-51
2022/03/22 04:04:37;;;;;;;21.10;14.50;;;3.50;99.90;;;;;;5033395;28;20215;-51
2022/03/22 04:07:09;;;;;;;18.93;13.00;;;3.40;99.90;;;;;;5039851;28;20286;-51
2022/03/22 04:09:38;;;;;;;17.43;13.00;;;3.40;99.90;;;;;;5053098;28;20206;-51
2022/03/22 04:12:07;;;;;;;18.00;13.27;;;3.30;99.90;;;;;;5053272;28;20216;-51
2022/03/22 04:14:36;;;;;;;21.30;13.83;;;3.30;99.90;;;;;;5053410;28;20212;-51
2022/03/22 04:17:04;;;;;;;18.10;12.77;;;3.20;99.90;;;;;;5052831;28;20918;-51
2022/03/22 04:19:33;;;;;;;18.37;13.10;;;3.20;99.90;;;;;;5053412;28;20213;-51
2022/03/22 04:22:02;;;;;;;18.10;13.37;;;3.20;99.90;;;;;;5052658;28;20210;-51
2022/03/22 04:24:32;;;;;;;19.03;13.70;;;3.20;99.90;;;;;;5052906;28;20272;-51
2022/03/22 04:32:43;;;;;;;21.07;13.97;;;3.20;99.90;;;;;;5052511;28;20258;-51
2022/03/22 04:35:12;;;;;;;19.10;14.13;;;3.20;99.90;;;;;;5052923;28;20615;-51
2022/03/22 04:37:41;;;;;;;20.17;13.73;;;3.20;99.90;;;;;;5052851;28;20257;-51
2022/03/22 04:40:14;;;;;;;18.37;13.23;;;3.10;99.90;;;;;;5052465;28;20269;-51
2022/03/22 04:42:42;;;;;;;20.03;14.47;;;3.10;99.90;;;;;;5052091;28;20697;-51
2022/03/22 04:45:11;;;;;;;19.83;14.47;;;3.00;99.90;;;;;;5052520;28;20202;-51
2022/03/22 04:47:40;;;;;;;25.00;14.77;;;3.00;99.90;;;;;;5052530;28;20602;-51
2022/03/22 04:50:09;;;;;;;19.20;12.83;;;3.00;99.90;;;;;;5052538;28;20236;-51
2022/03/22 04:58:07;;;;;;;20.13;13.60;;;3.00;99.90;;;;;;5028844;28;20223;-51
2022/03/22 05:00:35;;;;;;;18.87;14.30;;;3.00;99.90;;;;;;5052466;28;20213;-51
2022/03/22 05:03:05;;;;;;;17.60;13.37;;;3.00;99.90;;;;;;5052379;28;20210;-53
2022/03/22 05:08:19;;;;;;;20.80;14.43;;;3.00;99.90;;;;;;5052348;28;20221;-49
2022/03/22 05:10:49;;;;;;;23.37;15.20;;;3.10;99.90;;;;;;5051888;28;20202;-51
2022/03/22 05:13:21;;;;;;;20.00;14.00;;;3.10;99.90;;;;;;5050491;28;20211;-51
2022/03/22 05:15:50;;;;;;;20.93;13.80;;;3.00;99.90;;;;;;5052557;28;20201;-50
2022/03/22 05:18:19;;;;;;;17.93;12.93;;;3.00;99.90;;;;;;5051548;28;20371;-51
2022/03/22 05:20:47;;;;;;;20.27;13.87;;;3.00;99.90;;;;;;5051877;28;20228;-51
2022/03/22 05:23:17;;;;;;;23.80;14.67;;;2.90;99.90;;;;;;5051438;28;20213;-51
2022/03/22 05:25:46;;;;;;;20.10;13.90;;;2.90;99.90;;;;;;5052268;28;20229;-51
2022/03/22 05:28:15;;;;;;;21.23;15.03;;;2.90;99.90;;;;;;5051789;28;20230;-51
2022/03/22 05:30:43;;;;;;;21.30;14.27;;;2.90;99.90;;;;;;5051713;28;20214;-50
2022/03/22 05:33:11;;;;;;;19.23;14.50;;;2.90;99.90;;;;;;5051836;28;20260;-51
2022/03/22 05:35:39;;;;;;;21.20;14.87;;;3.00;99.90;;;;;;5050903;28;20206;-51
2022/03/22 05:38:07;;;;;;;21.60;15.17;;;3.00;99.90;;;;;;5051454;28;20780;-51
2022/03/22 05:40:36;;;;;;;20.67;14.43;;;3.00;99.90;;;;;;5051641;28;20217;-51
2022/03/22 05:43:04;;;;;;;22.10;15.63;;;3.00;99.90;;;;;;5051216;28;20245;-50
2022/03/22 05:45:34;;;;;;;21.60;14.77;;;3.00;99.90;;;;;;5051303;28;20208;-50
2022/03/22 05:48:02;;;;;;;20.10;14.17;;;3.00;99.90;;;;;;5051712;28;20257;-50
2022/03/22 05:50:30;;;;;;;19.30;14.57;;;3.00;99.90;;;;;;5051370;28;20209;-49
2022/03/22 05:52:58;;;;;;;22.73;15.70;;;3.10;99.90;;;;;;5050947;28;20216;-51
2022/03/22 05:55:26;;;;;;;19.13;14.77;;;3.00;99.90;;;;;;5051264;28;20674;-51
2022/03/22 05:57:54;;;;;;;21.83;15.57;;;3.10;99.90;;;;;;5051186;28;20279;-51
2022/03/22 06:00:22;;;;;;;21.07;15.67;;;3.00;99.90;;;;;;5050937;28;20213;-51
2022/03/22 06:02:52;;;;;;;20.13;14.57;;;3.00;99.90;;;;;;5050838;28;20267;-51
2022/03/22 06:05:20;;;;;;;24.17;15.07;;;3.10;99.90;;;;;;5051172;28;20208;-51
2022/03/22 06:07:48;;;;;;;21.67;16.30;;;3.20;99.90;;;;;;5052409;28;20615;-50
2022/03/22 06:10:16;;;;;;;17.70;15.10;;;3.30;99.90;;;;;;5046842;28;20209;-51
2022/03/22 06:12:46;;;;;;;22.30;15.10;;;3.40;99.90;;;;;;5034142;28;20220;-51
2022/03/22 06:15:16;;;;;;;21.20;15.30;;;3.40;99.90;;;;;;5050970;28;20263;-51
2022/03/22 06:17:47;;;;;;;26.40;17.23;;;3.50;99.90;;;;;;5051497;28;20287;-51
2022/03/22 06:20:18;;;;;;;42.40;27.47;;;3.50;99.90;;;;;;5050552;28;20206;-50
2022/03/22 06:22:47;;;;;;;44.63;28.33;;;3.60;99.90;;;;;;5050116;28;20706;-51
2022/03/22 06:25:17;;;;;;;39.33;25.77;;;3.70;99.90;;;;;;5050731;28;20209;-51
2022/03/22 06:27:47;;;;;;;27.43;18.63;;;3.80;99.90;;;;;;5050778;28;20280;-51
2022/03/22 06:30:17;;;;;;;19.63;14.93;;;3.90;99.90;;;;;;5050794;28;20202;-51
2022/03/22 06:32:47;;;;;;;21.37;14.87;;;4.00;99.90;;;;;;5050266;28;20194;-50
2022/03/22 06:35:17;;;;;;;21.90;14.80;;;4.00;99.90;;;;;;5050699;28;20229;-51
2022/03/22 06:37:46;;;;;;;22.60;15.60;;;4.30;99.90;;;;;;5050280;28;20236;-51
2022/03/22 06:40:16;;;;;;;21.57;14.33;;;4.40;99.90;;;;;;5050630;28;20255;-50
2022/03/22 06:42:45;;;;;;;17.63;14.17;;;4.50;99.90;;;;;;5050475;28;20225;-51
2022/03/22 06:45:14;;;;;;;21.60;15.23;;;4.70;99.90;;;;;;5050248;28;20213;-51
2022/03/22 06:47:43;;;;;;;20.70;14.80;;;5.00;99.90;;;;;;5051884;28;20254;-51
2022/03/22 06:50:13;;;;;;;21.20;15.17;;;5.20;99.90;;;;;;5054161;28;20209;-51
2022/03/22 06:52:43;;;;;;;22.57;17.77;;;5.50;99.90;;;;;;5046203;28;20260;-51
2022/03/22 06:55:13;;;;;;;21.73;16.80;;;5.90;99.90;;;;;;5035251;28;20213;-51
2022/03/22 06:57:41;;;;;;;20.87;15.90;;;6.20;99.90;;;;;;5034602;28;20229;-51
2022/03/22 07:00:11;;;;;;;18.27;14.63;;;6.70;99.90;;;;;;5046541;28;20213;-51
2022/03/22 07:02:40;;;;;;;16.80;14.13;;;7.10;99.90;;;;;;5054045;28;20225;-51
2022/03/22 07:05:10;;;;;;;17.37;13.83;;;7.40;99.70;;;;;;5054380;28;20216;-52
2022/03/22 07:07:38;;;;;;;18.17;13.67;;;7.60;99.40;;;;;;5053902;28;20280;-51
2022/03/22 07:10:11;;;;;;;17.23;13.60;;;7.90;99.90;;;;;;5053622;28;20209;-51
2022/03/22 07:12:51;;;;;;;18.97;15.60;;;8.30;99.90;;;;;;5053525;28;20209;-51
2022/03/22 07:15:21;;;;;;;16.47;13.63;;;8.30;99.90;;;;;;5052383;28;20220;-51
2022/03/22 07:17:49;;;;;;;19.00;14.93;;;8.20;99.70;;;;;;5034934;28;20296;-51
2022/03/22 07:20:17;;;;;;;17.23;14.50;;;8.20;99.90;;;;;;5036705;28;20209;-51
2022/03/22 07:22:45;;;;;;;17.63;14.80;;;8.30;99.90;;;;;;5053780;28;20218;-51
2022/03/22 07:25:15;;;;;;;17.17;14.53;;;8.40;99.90;;;;;;5053835;28;20228;-50
2022/03/22 07:27:44;;;;;;;16.83;14.73;;;8.60;99.90;;;;;;5053078;28;20290;-50
2022/03/22 07:30:12;;;;;;;18.90;16.47;;;8.70;99.90;;;;;;5052580;28;20210;-50
2022/03/22 07:32:41;;;;;;;19.83;15.97;;;8.90;99.90;;;;;;5053396;28;20748;-51
2022/03/22 07:35:11;;;;;;;17.30;14.73;;;8.90;99.50;;;;;;5054320;28;20205;-51
2022/03/22 07:37:40;;;;;;;17.00;14.97;;;9.00;99.30;;;;;;5053956;28;20229;-50
2022/03/22 07:40:11;;;;;;;19.60;16.20;;;9.20;98.90;;;;;;5054254;28;20206;-51
2022/03/22 07:42:41;;;;;;;19.07;14.27;;;9.50;98.70;;;;;;5053286;28;20264;-51
2022/03/22 07:45:11;;;;;;;16.93;14.60;;;9.60;97.90;;;;;;5048197;28;20210;-52
2022/03/22 07:47:41;;;;;;;18.53;15.00;;;9.80;97.70;;;;;;5034652;28;20237;-52
2022/03/22 07:53:01;;;;;;;18.27;15.70;;;10.30;95.80;;;;;;5039070;28;20724;-51
2022/03/22 07:55:31;;;;;;;19.60;14.27;;;10.30;95.90;;;;;;5053152;28;20240;-51
2022/03/22 07:58:02;;;;;;;18.23;14.47;;;10.50;96.10;;;;;;5033634;28;20230;-50
2022/03/22 08:00:31;;;;;;;17.87;14.00;;;10.70;94.80;;;;;;5047826;28;20675;-51
2022/03/22 08:03:01;;;;;;;18.43;15.23;;;10.70;95.90;;;;;;5053352;28;20232;-51
2022/03/22 08:05:30;;;;;;;18.00;15.50;;;10.60;95.70;;;;;;5053328;28;20229;-51
2022/03/22 08:07:59;;;;;;;16.40;14.37;;;10.50;96.70;;;;;;5038022;28;20249;-51
2022/03/22 08:10:47;;;;;;;19.23;15.83;;;10.40;97.20;;;;;;5053331;28;20233;-51
2022/03/22 08:13:17;;;;;;;20.80;15.50;;;10.40;96.30;;;;;;5052684;28;20210;-51
2022/03/22 08:15:46;;;;;;;20.17;15.73;;;10.40;96.00;;;;;;5052655;28;20209;-51
2022/03/22 08:18:16;;;;;;;20.70;15.50;;;10.30;96.10;;;;;;5053080;28;20308;-51
2022/03/22 08:20:45;;;;;;;20.07;15.07;;;10.40;96.00;;;;;;5052983;28;20220;-50
2022/03/22 08:23:13;;;;;;;23.53;16.13;;;10.40;96.10;;;;;;5052517;28;20253;-51
2022/03/22 08:25:43;;;;;;;20.77;14.57;;;10.50;96.70;;;;;;5053073;28;20209;-50
2022/03/22 08:28:14;;;;;;;18.70;15.20;;;10.60;95.60;;;;;;5053094;28;20237;-51
2022/03/22 08:30:44;;;;;;;18.93;14.97;;;10.60;95.10;;;;;;5042633;28;20218;-51
2022/03/22 08:33:13;;;;;;;19.27;15.37;;;10.70;95.10;;;;;;5032915;28;20213;-50
2022/03/22 08:35:45;;;;;;;21.10;15.37;;;10.80;94.90;;;;;;5032839;28;20675;-51
2022/03/22 08:38:14;;;;;;;18.97;14.77;;;10.90;95.40;;;;;;5032614;28;20238;-51
2022/03/22 08:40:42;;;;;;;21.77;15.00;;;11.00;95.10;;;;;;5034526;28;20214;-51
2022/03/22 08:43:11;;;;;;;19.30;14.80;;;11.00;94.90;;;;;;5032219;28;20226;-51
2022/03/22 08:45:39;;;;;;;18.40;14.67;;;11.10;94.30;;;;;;5032096;28;20214;-51
2022/03/22 08:48:11;;;;;;;18.37;14.70;;;11.20;95.20;;;;;;5032844;28;20284;-51
2022/03/22 08:50:40;;;;;;;20.10;14.77;;;11.20;94.30;;;;;;5048554;28;20789;-50
2022/03/22 08:53:09;;;;;;;21.77;16.23;;;11.30;94.30;;;;;;5050285;28;20236;-51
2022/03/22 08:55:44;;;;;;;18.80;15.10;;;11.30;95.60;;;;;;5052675;28;20190;-50
2022/03/22 08:58:13;;;;;;;18.43;14.90;;;11.40;97.10;;;;;;5051888;28;20229;-50
2022/03/22 09:00:41;;;;;;;20.33;15.30;;;11.50;97.10;;;;;;5052442;28;20201;-50
2022/03/22 09:03:11;;;;;;;16.73;14.73;;;11.50;96.60;;;;;;5051770;28;20236;-51
2022/03/22 09:08:25;;;;;;;17.87;14.57;;;11.60;95.50;;;;;;5052024;28;20279;-50
2022/03/22 09:10:53;;;;;;;17.50;14.80;;;11.70;95.90;;;;;;5051410;28;20279;-51
2022/03/22 09:13:22;;;;;;;20.27;15.60;;;11.70;94.40;;;;;;5051191;28;20205;-50
2022/03/22 09:15:51;;;;;;;18.17;15.07;;;11.80;95.50;;;;;;5051871;28;20206;-50
2022/03/22 09:18:22;;;;;;;17.30;14.67;;;11.80;95.00;;;;;;5051725;28;20256;-51
2022/03/22 09:20:51;;;;;;;18.80;14.07;;;11.80;93.80;;;;;;5051933;28;20201;-51
2022/03/22 09:23:19;;;;;;;21.33;15.47;;;11.90;94.80;;;;;;5051522;28;20301;-51
2022/03/22 09:25:48;;;;;;;17.03;14.33;;;12.00;94.70;;;;;;5051851;28;20201;-51
2022/03/22 09:28:16;;;;;;;16.97;14.20;;;12.10;94.60;;;;;;5051325;28;20237;-50
2022/03/22 09:30:48;;;;;;;21.23;14.90;;;12.10;94.50;;;;;;5051777;28;20217;-50
2022/03/22 09:33:17;;;;;;;17.00;14.33;;;12.20;95.10;;;;;;5050971;28;20648;-50
2022/03/22 09:35:48;;;;;;;18.50;14.57;;;12.30;95.00;;;;;;5051847;28;20213;-51
2022/03/22 09:38:17;;;;;;;19.97;14.80;;;12.40;95.60;;;;;;5051886;28;20229;-50
2022/03/22 09:40:47;;;;;;;21.93;14.23;;;12.40;96.10;;;;;;5053008;28;20213;-49
2022/03/22 09:43:18;;;;;;;19.67;13.10;;;12.50;95.40;;;;;;5052136;28;20229;-51
2022/03/22 09:45:46;;;;;;;21.07;14.10;;;12.50;92.90;;;;;;5051203;28;20251;-51
2022/03/22 09:48:17;;;;;;;20.83;13.27;;;12.60;95.30;;;;;;5051971;28;20257;-51
2022/03/22 09:53:32;;;;;;;19.27;14.73;;;12.70;93.40;;;;;;5046455;28;20259;-52
2022/03/22 09:56:03;;;;;;;20.13;13.93;;;12.80;94.50;;;;;;5050983;28;20296;-51
2022/03/22 09:58:36;;;;;;;16.80;12.63;;;12.90;94.60;;;;;;5051315;28;20225;-51
2022/03/22 10:01:05;;;;;;;17.57;12.90;;;12.90;93.40;;;;;;5050910;28;20278;-51
2022/03/22 10:03:33;;;;;;;16.40;13.93;;;13.00;92.50;;;;;;5050814;28;20237;-51
2022/03/22 10:06:05;;;;;;;17.40;13.57;;;13.10;92.10;;;;;;5051526;28;20213;-51
2022/03/22 10:08:34;;;;;;;15.93;13.73;;;13.10;93.00;;;;;;5051115;28;20303;-51
2022/03/22 10:11:05;;;;;;;17.63;14.03;;;13.20;92.00;;;;;;5051474;28;20206;-51
2022/03/22 10:13:35;;;;;;;16.27;13.43;;;13.20;91.40;;;;;;5049885;28;20201;-51
2022/03/22 10:16:05;;;;;;;17.50;14.70;;;13.20;89.00;;;;;;5045338;28;20214;-51
2022/03/22 10:18:35;;;;;;;18.13;14.27;;;13.20;90.30;;;;;;5030644;28;20277;-52
2022/03/22 10:21:06;;;;;;;18.13;13.93;;;13.30;90.10;;;;;;5031106;28;20594;-51
2022/03/22 10:23:47;;;;;;;16.63;13.23;;;13.40;91.30;;;;;;5030107;28;20248;-51
2022/03/22 10:26:16;;;;;;;18.90;13.97;;;13.50;91.20;;;;;;5031126;28;20202;-50
2022/03/22 10:28:51;;;;;;;17.63;14.17;;;13.50;89.20;;;;;;5030899;28;20280;-51
2022/03/22 10:31:20;;;;;;;18.57;14.00;;;13.50;90.00;;;;;;5046598;28;20209;-51
2022/03/22 10:33:51;;;;;;;17.77;13.73;;;13.50;85.90;;;;;;5050422;28;20748;-51
2022/03/22 10:36:22;;;;;;;16.70;13.80;;;13.60;90.00;;;;;;5050923;28;20275;-51
2022/03/22 10:38:57;;;;;;;17.23;14.00;;;13.60;88.30;;;;;;5050806;28;20197;-51
2022/03/22 10:41:27;;;;;;;18.23;14.33;;;13.60;89.60;;;;;;5043675;28;20205;-51
2022/03/22 10:44:05;;;;;;;17.17;13.97;;;13.70;87.30;;;;;;5049749;28;20249;-50
2022/03/22 10:46:34;;;;;;;18.53;14.07;;;13.70;84.90;;;;;;5050022;28;20829;-51
2022/03/22 10:49:08;;;;;;;20.40;14.50;;;13.70;84.60;;;;;;5050990;28;20213;-51
2022/03/22 10:51:43;;;;;;;17.43;13.43;;;13.70;83.70;;;;;;5049018;28;20210;-51
2022/03/22 10:54:12;;;;;;;15.93;13.33;;;13.70;83.70;;;;;;5050459;28;20586;-51
2022/03/22 10:56:46;;;;;;;17.77;13.57;;;13.80;87.60;;;;;;5049798;28;20279;-51
2022/03/22 10:59:16;;;;;;;17.87;13.43;;;13.90;86.10;;;;;;5050244;28;20194;-51
2022/03/22 11:01:45;;;;;;;16.87;13.23;;;13.90;87.70;;;;;;5050237;28;20213;-51
2022/03/22 11:04:16;;;;;;;17.57;13.67;;;14.00;87.30;;;;;;5049822;28;20336;-51
2022/03/22 11:06:47;;;;;;;15.60;13.60;;;14.10;90.10;;;;;;5050271;28;20225;-51
2022/03/22 11:09:16;;;;;;;18.75;15.00;;;14.10;87.30;;;;;;5048182;28;20446;-51
2022/03/22 11:11:44;;;;;;;17.53;14.70;;;14.20;86.30;;;;;;5030120;28;20209;-52
2022/03/22 11:14:15;;;;;;;16.57;13.63;;;14.20;88.00;;;;;;5030920;28;20248;-51
2022/03/22 11:16:47;;;;;;;18.33;13.90;;;14.20;86.60;;;;;;5030626;28;20276;-51
2022/03/22 11:19:21;;;;;;;18.40;14.37;;;14.20;83.90;;;;;;5030745;28;20711;-51
2022/03/22 11:21:51;;;;;;;19.07;14.10;;;14.10;86.20;;;;;;5029861;28;20625;-51
2022/03/22 11:24:25;;;;;;;19.70;14.57;;;14.20;87.80;;;;;;5030384;28;20599;-52
2022/03/22 11:26:55;;;;;;;17.87;13.10;;;14.30;86.00;;;;;;5030508;28;20311;-51
2022/03/22 11:29:25;;;;;;;19.27;14.10;;;14.30;84.70;;;;;;5030778;28;20203;-51
2022/03/22 11:34:41;;;;;;;18.97;13.67;;;14.40;85.50;;;;;;5031818;28;20213;-50
2022/03/22 11:37:11;;;;;;;19.67;13.67;;;14.40;86.80;;;;;;5034216;28;20230;-51
2022/03/22 11:42:26;;;;;;;19.07;13.80;;;14.50;87.00;;;;;;5034165;28;20583;-51
2022/03/22 11:44:56;;;;;;;16.77;13.67;;;14.50;85.10;;;;;;5053604;28;20651;-51
2022/03/22 11:47:25;;;;;;;17.30;13.67;;;14.50;85.40;;;;;;5053811;28;20300;-51
2022/03/22 11:49:55;;;;;;;16.30;13.80;;;14.60;83.60;;;;;;5053177;28;20202;-52
2022/03/22 11:52:25;;;;;;;19.47;13.77;;;14.50;82.00;;;;;;5045791;28;20267;-51
2022/03/22 11:54:59;;;;;;;17.80;14.07;;;14.60;81.50;;;;;;5035322;28;20977;-51
2022/03/22 11:57:28;;;;;;;17.33;12.93;;;14.50;82.60;;;;;;5033714;28;20230;-51
2022/03/22 11:59:56;;;;;;;18.53;13.57;;;14.60;82.80;;;;;;5043670;28;20230;-51
2022/03/22 12:02:30;;;;;;;17.07;14.53;;;14.60;82.70;;;;;;5051851;28;20244;-51
2022/03/22 12:05:03;;;;;;;16.00;13.23;;;14.60;81.90;;;;;;5052897;28;20296;-51
2022/03/22 12:07:36;;;;;;;17.53;14.10;;;14.70;82.00;;;;;;5042839;28;20276;-51
2022/03/22 12:10:07;;;;;;;18.60;13.50;;;14.70;80.10;;;;;;5052752;28;20292;-51
2022/03/22 12:12:37;;;;;;;17.47;13.37;;;14.70;82.20;;;;;;5052453;28;20636;-51
2022/03/22 12:15:08;;;;;;;16.30;12.70;;;14.80;81.80;;;;;;5043176;28;20784;-51
2022/03/22 12:17:37;;;;;;;15.33;12.50;;;14.80;82.50;;;;;;5032363;28;20237;-51
2022/03/22 12:20:11;;;;;;;15.37;12.00;;;14.80;83.50;;;;;;5043900;28;20206;-51
2022/03/22 12:22:43;;;;;;;14.43;12.00;;;14.90;83.00;;;;;;5052366;28;20670;-51
2022/03/22 12:25:15;;;;;;;15.57;12.27;;;15.00;82.70;;;;;;5052855;28;20209;-51
2022/03/22 12:27:53;;;;;;;17.33;13.03;;;15.00;83.70;;;;;;5052031;28;20221;-51
2022/03/22 12:30:22;;;;;;;14.37;12.00;;;15.10;81.60;;;;;;5052240;28;20217;-51
2022/03/22 12:32:52;;;;;;;19.57;12.50;;;15.10;78.50;;;;;;5052415;28;20256;-51
2022/03/22 12:35:20;;;;;;;14.70;12.03;;;15.00;77.20;;;;;;5052424;28;20255;-52
2022/03/22 12:37:52;;;;;;;15.83;12.00;;;15.00;75.80;;;;;;5052557;28;20225;-51
2022/03/22 12:40:21;;;;;;;17.30;12.80;;;15.00;76.40;;;;;;5052822;28;20629;-51
2022/03/22 12:42:50;;;;;;;16.40;13.20;;;15.00;76.10;;;;;;5052075;28;20213;-51
2022/03/22 12:45:20;;;;;;;16.42;12.30;;;15.00;78.10;;;;;;5052712;28;20689;-51
2022/03/22 12:47:48;;;;;;;16.17;12.50;;;15.00;78.80;;;;;;5052212;28;20230;-51
2022/03/22 12:50:18;;;;;;;15.97;12.27;;;15.10;79.00;;;;;;5050913;28;20209;-51
2022/03/22 12:52:46;;;;;;;18.77;13.33;;;15.10;76.80;;;;;;5051606;28;20666;-51
2022/03/22 12:55:18;;;;;;;16.05;13.10;;;15.20;79.30;;;;;;5052530;28;20197;-51
2022/03/22 12:57:51;;;;;;;17.23;13.80;;;15.20;77.30;;;;;;5052514;28;20226;-51
2022/03/22 13:00:27;;;;;;;18.63;13.27;;;15.20;78.40;;;;;;5051734;28;20209;-51
2022/03/22 13:02:57;;;;;;;18.52;14.13;;;15.20;79.80;;;;;;5051217;28;20217;-51
2022/03/22 13:05:28;;;;;;;17.30;13.93;;;15.10;79.00;;;;;;5051416;28;20272;-51
2022/03/22 13:08:18;;;;;;;17.27;13.33;;;15.20;80.70;;;;;;5052228;28;20217;-51
2022/03/22 13:16:23;;;;;;;28.70;14.40;;;15.20;78.30;;;;;;5052276;28;20189;-51
2022/03/22 13:18:57;;;;;;;20.10;14.57;;;15.20;80.60;;;;;;5052297;28;20210;-51
2022/03/22 13:21:25;;;;;;;17.67;13.63;;;15.20;80.20;;;;;;5052054;28;20225;-51
2022/03/22 13:24:00;;;;;;;19.02;14.13;;;15.20;80.80;;;;;;5051831;28;20392;-50
2022/03/22 13:26:32;;;;;;;18.33;13.63;;;15.30;78.80;;;;;;5051772;28;20221;-50
2022/03/22 13:29:10;;;;;;;18.60;14.57;;;15.30;80.90;;;;;;5051765;28;20699;-51
2022/03/22 13:31:38;;;;;;;18.83;13.55;;;15.30;79.80;;;;;;5051628;28;20248;-51
2022/03/22 13:34:07;;;;;;;16.85;13.45;;;15.30;79.40;;;;;;5043530;28;20200;-51